createdAt,value
2019-05-21T00:00:19.130Z,11.05
2019-05-21T00:02:47.614Z,10.60
2019-05-21T00:05:16.214Z,9.13
2019-05-21T00:07:44.677Z,9.55
2019-05-21T00:10:13.777Z,11.20
2019-05-21T00:12:42.259Z,9.93
2019-05-21T00:15:10.809Z,10.43
2019-05-21T00:17:39.357Z,9.00
2019-05-21T00:20:08.340Z,8.53
2019-05-21T00:22:36.892Z,9.48
2019-05-21T00:25:06.337Z,10.18
2019-05-21T00:27:34.793Z,9.10
2019-05-21T00:30:39.729Z,8.93
2019-05-21T00:33:20.010Z,9.25
2019-05-21T00:36:26.642Z,10.10
2019-05-21T00:39:31.374Z,9.43
2019-05-21T00:42:02.390Z,11.53
2019-05-21T00:44:37.289Z,9.90
2019-05-21T00:47:08.960Z,9.75
2019-05-21T00:49:37.564Z,8.95
2019-05-21T00:52:08.828Z,10.00
2019-05-21T00:54:36.861Z,10.45
2019-05-21T00:57:05.460Z,9.78
2019-05-21T00:59:34.002Z,12.73
2019-05-21T01:02:02.494Z,10.82
2019-05-21T01:04:31.174Z,11.97
2019-05-21T01:06:59.679Z,12.68
2019-05-21T01:09:28.165Z,10.95
2019-05-21T01:11:56.631Z,13.32
2019-05-21T01:14:25.080Z,14.30
2019-05-21T01:16:53.572Z,13.18
2019-05-21T01:19:22.035Z,13.75
2019-05-21T01:21:50.576Z,15.55
2019-05-21T01:24:19.112Z,16.00
2019-05-21T01:26:47.651Z,13.00
2019-05-21T01:29:16.199Z,13.95
2019-05-21T01:31:44.688Z,14.38
2019-05-21T01:34:13.292Z,12.68
2019-05-21T01:36:41.764Z,13.62
2019-05-21T01:39:13.576Z,13.53
2019-05-21T01:41:42.050Z,16.48
2019-05-21T01:44:10.515Z,14.63
2019-05-21T01:46:38.992Z,15.38
2019-05-21T01:49:07.467Z,14.38
2019-05-21T01:51:35.931Z,14.83
2019-05-21T01:54:04.748Z,13.80
2019-05-21T01:56:33.206Z,13.90
2019-05-21T01:59:01.675Z,14.20
2019-05-21T02:01:30.152Z,16.42
2019-05-21T02:03:58.616Z,14.87
2019-05-21T02:06:27.072Z,14.60
2019-05-21T02:08:55.556Z,16.12
2019-05-21T02:11:24.022Z,14.98
2019-05-21T02:13:52.551Z,16.45
2019-05-21T02:16:21.029Z,15.00
2019-05-21T02:18:49.492Z,14.15
2019-05-21T02:21:18.805Z,17.05
2019-05-21T02:23:47.280Z,15.83
2019-05-21T02:26:15.755Z,16.97
2019-05-21T02:28:44.274Z,14.18
2019-05-21T02:31:12.760Z,14.78
2019-05-21T02:33:41.260Z,16.12
2019-05-21T02:36:09.781Z,15.30
2019-05-21T02:38:38.335Z,13.70
2019-05-21T02:41:06.819Z,12.43
2019-05-21T02:43:35.435Z,15.95
2019-05-21T02:46:04.223Z,15.83
2019-05-21T02:48:32.775Z,14.83
2019-05-21T02:51:01.271Z,16.57
2019-05-21T02:53:34.137Z,17.62
2019-05-21T02:56:00.027Z,15.65
2019-05-21T02:58:28.499Z,15.23
2019-05-21T03:01:01.420Z,15.25
2019-05-21T03:03:31.606Z,16.62
2019-05-21T03:06:12.940Z,14.10
2019-05-21T03:08:30.291Z,15.78
2019-05-21T03:10:58.832Z,17.02
2019-05-21T03:13:27.360Z,15.70
2019-05-21T03:15:56.055Z,16.93
2019-05-21T03:18:24.513Z,14.05
2019-05-21T03:20:52.982Z,15.83
2019-05-21T03:23:21.608Z,14.25
2019-05-21T03:25:50.156Z,17.07
2019-05-21T03:28:18.682Z,16.82
2019-05-21T03:30:47.168Z,16.42
2019-05-21T03:33:15.699Z,14.00
2019-05-21T03:35:44.214Z,15.03
2019-05-21T03:38:12.757Z,16.40
2019-05-21T03:40:41.294Z,15.45
2019-05-21T03:43:09.836Z,15.18
2019-05-21T03:45:38.395Z,15.65
2019-05-21T03:48:06.867Z,14.07
2019-05-21T03:50:35.335Z,15.43
2019-05-21T03:53:03.890Z,13.72
2019-05-21T03:55:32.350Z,13.55
2019-05-21T03:58:00.815Z,12.20
2019-05-21T04:00:29.383Z,13.00
2019-05-21T04:02:57.832Z,14.28
2019-05-21T04:05:26.440Z,11.57
2019-05-21T04:07:55.135Z,13.38
2019-05-21T04:10:23.922Z,14.00
2019-05-21T04:13:08.210Z,12.60
2019-05-21T04:15:43.235Z,12.05
2019-05-21T04:18:19.575Z,12.18
2019-05-21T04:20:48.053Z,11.10
2019-05-21T04:23:16.589Z,10.48
2019-05-21T04:25:45.082Z,9.63
2019-05-21T04:28:13.620Z,12.73
2019-05-21T04:30:42.137Z,11.28
2019-05-21T04:33:10.623Z,9.90
2019-05-21T04:35:39.093Z,9.63
2019-05-21T04:38:07.621Z,11.05
2019-05-21T04:40:36.163Z,10.15
2019-05-21T04:43:04.686Z,10.68
2019-05-21T04:45:33.163Z,10.98
2019-05-21T04:48:01.656Z,9.45
2019-05-21T04:50:30.177Z,9.53
2019-05-21T04:52:58.648Z,11.10
2019-05-21T04:55:27.135Z,10.13
2019-05-21T04:57:55.611Z,10.72
2019-05-21T05:00:24.060Z,11.08
2019-05-21T05:02:52.556Z,10.05
2019-05-21T05:05:21.201Z,10.05
2019-05-21T05:07:49.759Z,11.43
2019-05-21T05:10:18.395Z,9.63
2019-05-21T05:12:46.846Z,9.33
2019-05-21T05:15:15.482Z,11.12
2019-05-21T05:17:43.979Z,10.08
2019-05-21T05:20:12.975Z,11.05
2019-05-21T05:22:41.456Z,11.43
2019-05-21T05:25:10.270Z,10.82
2019-05-21T05:27:38.759Z,11.00
2019-05-21T05:30:08.053Z,10.98
2019-05-21T05:32:36.578Z,10.78
2019-05-21T05:35:06.720Z,12.55
2019-05-21T05:37:44.267Z,11.65
2019-05-21T05:40:09.292Z,10.15
2019-05-21T05:42:37.788Z,11.50
2019-05-21T05:45:08.294Z,13.05
2019-05-21T05:47:36.762Z,13.68
2019-05-21T05:50:24.157Z,11.73
2019-05-21T05:52:52.651Z,10.43
2019-05-21T05:55:21.115Z,10.32
2019-05-21T05:57:49.586Z,9.10
2019-05-21T06:00:18.472Z,10.20
2019-05-21T06:02:47.008Z,9.25
2019-05-21T06:05:16.091Z,11.85
2019-05-21T06:07:58.836Z,10.82
2019-05-21T06:10:15.000Z,10.72
2019-05-21T06:12:43.611Z,11.05
2019-05-21T06:15:13.033Z,10.40
2019-05-21T06:17:41.520Z,10.32
2019-05-21T06:20:10.235Z,10.40
2019-05-21T06:22:38.797Z,10.48
2019-05-21T06:25:08.544Z,10.43
2019-05-21T06:27:37.020Z,9.95
2019-05-21T06:30:07.913Z,10.90
2019-05-21T06:35:06.448Z,13.62
2019-05-21T06:37:34.915Z,9.85
2019-05-21T06:40:05.977Z,10.10
2019-05-21T06:42:35.571Z,10.85
2019-05-21T06:45:06.232Z,10.32
2019-05-21T06:47:36.824Z,10.78
2019-05-21T06:50:06.149Z,11.28
2019-05-21T06:52:34.766Z,10.18
2019-05-21T06:55:04.264Z,14.45
2019-05-21T06:57:32.765Z,9.63
2019-05-21T07:00:01.278Z,10.03
2019-05-21T07:02:30.794Z,9.88
2019-05-21T07:04:59.424Z,10.50
2019-05-21T07:07:27.950Z,11.22
2019-05-21T07:09:56.552Z,10.23
2019-05-21T07:12:26.189Z,8.83
2019-05-21T07:15:03.931Z,9.40
2019-05-21T07:17:32.406Z,9.70
2019-05-21T07:20:00.860Z,10.65
2019-05-21T07:22:29.429Z,9.93
2019-05-21T07:24:58.053Z,11.85
2019-05-21T07:27:26.587Z,8.30
2019-05-21T07:29:55.066Z,10.03
2019-05-21T07:32:24.588Z,9.00
2019-05-21T07:34:55.137Z,8.63
2019-05-21T07:37:24.749Z,8.45
2019-05-21T07:39:53.268Z,11.28
2019-05-21T07:42:25.709Z,8.38
2019-05-21T07:44:54.300Z,9.00
2019-05-21T07:47:23.976Z,7.67
2019-05-21T07:49:53.602Z,6.72
2019-05-21T07:52:23.224Z,6.12
2019-05-21T07:54:51.790Z,9.45
2019-05-21T07:57:20.505Z,7.75
2019-05-21T07:59:49.068Z,7.42
2019-05-21T08:02:18.665Z,6.37
2019-05-21T08:04:48.267Z,7.00
2019-05-21T08:07:17.964Z,4.70
2019-05-21T08:09:46.571Z,5.90
2019-05-21T08:12:35.506Z,8.73
2019-05-21T08:14:45.352Z,8.58
2019-05-21T08:17:14.883Z,8.83
2019-05-21T08:19:44.493Z,9.50
2019-05-21T08:22:13.186Z,7.85
2019-05-21T08:24:42.783Z,6.80
2019-05-21T08:27:12.408Z,5.22
2019-05-21T08:29:43.035Z,6.67
2019-05-21T08:34:41.608Z,6.30
2019-05-21T08:37:10.098Z,5.50
2019-05-21T08:39:38.577Z,4.83
2019-05-21T08:42:07.371Z,5.55
2019-05-21T08:44:35.970Z,6.53
2019-05-21T08:47:04.432Z,7.37
2019-05-21T08:49:32.889Z,5.45
2019-05-21T08:52:01.619Z,6.60
2019-05-21T08:54:50.282Z,6.37
2019-05-21T08:57:20.267Z,10.38
2019-05-21T08:59:53.569Z,5.37
2019-05-21T09:02:24.048Z,5.97
2019-05-21T09:04:52.648Z,5.42
2019-05-21T09:07:21.352Z,8.95
2019-05-21T09:09:51.766Z,8.05
2019-05-21T09:12:20.214Z,6.42
2019-05-21T09:14:49.901Z,5.55
2019-05-21T09:17:18.459Z,5.25
2019-05-21T09:19:47.852Z,4.35
2019-05-21T09:22:16.650Z,5.50
2019-05-21T09:24:45.150Z,3.55
2019-05-21T09:27:13.794Z,3.65
2019-05-21T09:29:42.405Z,4.67
2019-05-21T09:32:10.878Z,4.35
2019-05-21T09:34:48.785Z,2.83
2019-05-21T09:37:19.042Z,2.60
2019-05-21T09:39:40.021Z,4.37
2019-05-21T09:42:09.558Z,3.33
2019-05-21T09:44:38.039Z,2.58
2019-05-21T09:47:07.756Z,3.90
2019-05-21T09:49:38.405Z,3.42
2019-05-21T09:52:06.978Z,4.15
2019-05-21T09:54:39.610Z,4.47
2019-05-21T09:57:12.023Z,4.40
2019-05-21T09:59:43.489Z,7.20
2019-05-21T10:02:23.702Z,7.33
2019-05-21T10:04:52.407Z,3.40
2019-05-21T10:07:38.332Z,6.33
2019-05-21T10:09:51.431Z,6.35
2019-05-21T10:12:20.140Z,5.55
2019-05-21T10:14:48.673Z,4.92
2019-05-21T10:17:18.392Z,4.90
2019-05-21T10:19:48.069Z,4.37
2019-05-21T10:22:17.689Z,6.17
2019-05-21T10:24:52.033Z,4.00
2019-05-21T10:27:20.554Z,3.67
2019-05-21T10:29:50.121Z,2.40
2019-05-21T10:32:18.660Z,2.27
2019-05-21T10:34:47.379Z,3.67
2019-05-21T10:37:15.917Z,2.58
2019-05-21T10:39:44.662Z,3.67
2019-05-21T10:42:13.256Z,4.22
2019-05-21T10:44:41.806Z,3.75
2019-05-21T10:47:10.290Z,3.00
2019-05-21T10:49:38.741Z,5.17
2019-05-21T10:52:08.388Z,5.72
2019-05-21T10:54:37.010Z,3.87
2019-05-21T10:57:06.674Z,4.72
2019-05-21T11:02:05.863Z,2.93
2019-05-21T11:04:36.120Z,3.55
2019-05-21T11:07:05.889Z,5.35
2019-05-21T11:09:35.571Z,3.70
2019-05-21T11:12:07.121Z,3.98
2019-05-21T11:14:35.746Z,4.10
2019-05-21T11:17:06.256Z,4.70
2019-05-21T11:19:36.780Z,3.42
2019-05-21T11:22:05.404Z,3.92
2019-05-21T11:24:34.057Z,5.75
2019-05-21T11:27:05.517Z,4.35
2019-05-21T11:29:34.103Z,4.42
2019-05-21T11:32:02.618Z,2.95
2019-05-21T11:34:31.104Z,4.42
2019-05-21T11:36:59.702Z,3.75
2019-05-21T11:39:28.314Z,5.17
2019-05-21T11:41:58.094Z,4.85
2019-05-21T11:46:55.345Z,3.83
2019-05-21T11:49:23.991Z,4.22
2019-05-21T11:51:52.440Z,4.08
2019-05-21T11:54:21.945Z,5.50
2019-05-21T11:56:50.460Z,5.00
2019-05-21T11:59:20.064Z,4.87
2019-05-21T12:01:53.953Z,3.83
2019-05-21T12:04:22.427Z,3.70
2019-05-21T12:06:51.055Z,4.12
2019-05-21T12:09:19.540Z,5.53
2019-05-21T12:11:49.955Z,4.50
2019-05-21T12:14:18.548Z,3.67
2019-05-21T12:16:47.055Z,5.67
2019-05-21T12:19:15.595Z,5.42
2019-05-21T12:21:44.066Z,4.72
2019-05-21T12:24:12.810Z,3.35
2019-05-21T12:26:42.520Z,4.35
2019-05-21T12:29:11.036Z,5.42
2019-05-21T12:31:39.596Z,3.87
2019-05-21T12:34:08.055Z,5.05
2019-05-21T12:36:37.724Z,3.25
2019-05-21T12:39:14.115Z,4.95
2019-05-21T12:41:38.931Z,5.20
2019-05-21T12:44:07.593Z,7.12
2019-05-21T12:46:36.247Z,3.67
2019-05-21T12:49:04.885Z,4.90
2019-05-21T12:51:33.416Z,4.28
2019-05-21T12:54:02.135Z,4.20
2019-05-21T12:56:31.733Z,2.67
2019-05-21T12:59:00.970Z,3.00
2019-05-21T13:01:29.772Z,4.10
2019-05-21T13:04:00.451Z,2.00
2019-05-21T13:06:29.244Z,3.72
2019-05-21T13:08:57.985Z,2.17
2019-05-21T13:11:26.688Z,3.00
2019-05-21T13:13:55.849Z,3.33
2019-05-21T13:16:25.042Z,3.40
2019-05-21T13:18:53.979Z,3.33
2019-05-21T13:21:23.805Z,4.00
2019-05-21T13:23:52.612Z,3.37
2019-05-21T13:26:21.593Z,5.10
2019-05-21T13:28:51.577Z,5.03
2019-05-21T13:33:49.328Z,5.47
2019-05-21T13:36:19.162Z,3.55
2019-05-21T13:38:47.809Z,3.33
2019-05-21T13:41:16.979Z,3.37
2019-05-21T13:43:45.744Z,3.30
2019-05-21T13:46:15.601Z,3.77
2019-05-21T13:48:46.891Z,4.37
2019-05-21T13:51:14.736Z,5.97
2019-05-21T13:53:43.401Z,4.30
2019-05-21T13:56:12.230Z,2.20
2019-05-21T13:58:41.999Z,2.55
2019-05-21T14:01:15.997Z,2.20
2019-05-21T14:03:44.794Z,4.30
2019-05-21T14:06:13.443Z,4.60
2019-05-21T14:08:43.355Z,5.05
2019-05-21T14:13:42.583Z,3.20
2019-05-21T14:16:11.392Z,4.10
2019-05-21T14:18:40.135Z,3.10
2019-05-21T14:21:10.938Z,2.98
2019-05-21T14:23:44.064Z,2.15
2019-05-21T14:26:12.963Z,2.58
2019-05-21T14:28:41.561Z,2.98
2019-05-21T14:31:11.267Z,2.25
2019-05-21T14:33:40.801Z,2.75
2019-05-21T14:36:09.410Z,2.47
2019-05-21T14:38:38.027Z,2.35
2019-05-21T14:41:07.699Z,2.58
2019-05-21T14:43:36.278Z,2.50
2019-05-21T14:46:06.309Z,2.98
2019-05-21T14:51:05.526Z,3.47
2019-05-21T14:53:34.117Z,4.00
2019-05-21T14:56:04.941Z,5.55
2019-05-21T14:58:33.524Z,4.33
2019-05-21T15:01:02.105Z,3.67
2019-05-21T15:03:31.838Z,4.17
2019-05-21T15:06:00.370Z,2.27
2019-05-21T15:08:29.987Z,3.42
2019-05-21T15:10:58.585Z,2.60
2019-05-21T15:13:27.204Z,3.10
2019-05-21T15:15:55.879Z,3.47
2019-05-21T15:18:24.413Z,3.70
2019-05-21T15:23:47.137Z,3.12
2019-05-21T15:26:16.127Z,2.90
2019-05-21T15:28:44.654Z,3.58
2019-05-21T15:31:13.257Z,4.58
2019-05-21T15:33:41.803Z,2.05
2019-05-21T15:36:10.251Z,4.58
2019-05-21T15:38:49.279Z,2.45
2019-05-21T15:41:12.173Z,2.52
2019-05-21T15:43:39.143Z,3.33
2019-05-21T15:46:07.722Z,2.05
2019-05-21T15:48:36.214Z,2.35
2019-05-21T15:51:04.696Z,3.47
2019-05-21T15:53:34.213Z,4.03
2019-05-21T15:56:03.803Z,2.40
2019-05-21T15:58:32.329Z,2.33
2019-05-21T16:01:01.938Z,2.10
2019-05-21T16:03:30.437Z,3.80
2019-05-21T16:05:59.028Z,2.02
2019-05-21T16:08:27.673Z,2.55
2019-05-21T16:10:56.483Z,2.72
2019-05-21T16:13:25.059Z,1.92
2019-05-21T16:15:54.754Z,2.70
2019-05-21T16:18:23.467Z,2.45
2019-05-21T16:20:53.061Z,1.95
2019-05-21T16:23:21.722Z,3.00
2019-05-21T16:25:50.437Z,2.27
2019-05-21T16:28:18.920Z,1.42
2019-05-21T16:30:49.429Z,2.20
2019-05-21T16:33:18.197Z,2.58
2019-05-21T16:35:46.826Z,1.80
2019-05-21T16:38:16.997Z,3.02
2019-05-21T16:40:45.596Z,1.57
2019-05-21T16:43:15.122Z,2.12
2019-05-21T16:45:43.569Z,1.40
2019-05-21T16:48:12.128Z,2.83
2019-05-21T16:50:42.975Z,2.55
2019-05-21T16:53:11.817Z,1.72
2019-05-21T16:55:40.451Z,2.87
2019-05-21T16:58:09.046Z,3.22
2019-05-21T17:00:37.808Z,2.77
2019-05-21T17:03:06.846Z,2.92
2019-05-21T17:05:35.339Z,3.87
2019-05-21T17:08:08.896Z,1.98
2019-05-21T17:10:37.375Z,1.77
2019-05-21T17:13:07.002Z,1.98
2019-05-21T17:15:35.524Z,3.08
2019-05-21T17:18:06.109Z,2.12
2019-05-21T17:20:34.662Z,1.90
2019-05-21T17:23:03.322Z,3.95
2019-05-21T17:25:31.989Z,2.65
2019-05-21T17:28:01.738Z,2.25
2019-05-21T17:30:30.419Z,2.37
2019-05-21T17:33:01.009Z,1.70
2019-05-21T17:37:58.428Z,2.33
2019-05-21T17:40:28.295Z,2.65
2019-05-21T17:42:56.802Z,3.43
2019-05-21T17:45:25.484Z,3.17
2019-05-21T17:47:54.996Z,2.52
2019-05-21T17:50:23.711Z,2.17
2019-05-21T17:52:53.307Z,3.05
2019-05-21T17:55:21.775Z,2.25
2019-05-21T17:57:50.665Z,2.67
2019-05-21T18:00:23.808Z,2.95
2019-05-21T18:02:53.720Z,5.03
2019-05-21T18:05:24.474Z,2.90
2019-05-21T18:10:22.099Z,3.00
2019-05-21T18:12:52.717Z,4.15
2019-05-21T18:15:21.673Z,2.85
2019-05-21T18:17:51.230Z,3.12
2019-05-21T18:20:20.870Z,2.87
2019-05-21T18:22:52.003Z,3.52
2019-05-21T18:25:23.387Z,4.45
2019-05-21T18:27:51.931Z,4.12
2019-05-21T18:30:20.658Z,4.25
2019-05-21T18:32:50.661Z,3.12
2019-05-21T18:35:19.256Z,3.15
2019-05-21T18:37:49.111Z,6.67
2019-05-21T18:40:21.133Z,3.47
2019-05-21T18:42:49.816Z,3.52
2019-05-21T18:45:18.435Z,7.12
2019-05-21T18:47:46.952Z,6.03
2019-05-21T18:50:16.585Z,6.45
2019-05-21T18:52:49.477Z,5.35
2019-05-21T18:55:17.253Z,5.33
2019-05-21T18:57:46.981Z,4.67
2019-05-21T19:00:15.855Z,3.47
2019-05-21T19:02:45.888Z,7.55
2019-05-21T19:05:14.907Z,5.97
2019-05-21T19:07:44.444Z,4.00
2019-05-21T19:10:14.219Z,5.20
2019-05-21T19:12:42.778Z,3.33
2019-05-21T19:15:11.833Z,5.25
2019-05-21T19:17:40.421Z,2.45
2019-05-21T19:20:12.358Z,2.75
2019-05-21T19:22:40.921Z,3.15
2019-05-21T19:25:09.677Z,2.60
2019-05-21T19:27:38.462Z,2.90
2019-05-21T19:30:09.675Z,3.42
2019-05-21T19:32:39.362Z,3.60
2019-05-21T19:35:08.600Z,4.35
2019-05-21T19:37:38.329Z,1.67
2019-05-21T19:40:09.035Z,2.47
2019-05-21T19:42:53.859Z,3.25
2019-05-21T19:45:10.962Z,2.92
2019-05-21T19:47:39.865Z,2.80
2019-05-21T19:50:08.845Z,3.33
2019-05-21T19:52:38.574Z,3.35
2019-05-21T19:55:12.656Z,5.70
2019-05-21T19:57:42.385Z,2.75
2019-05-21T20:00:12.708Z,5.03
2019-05-21T20:02:42.235Z,2.75
2019-05-21T20:05:12.064Z,3.65
2019-05-21T20:07:41.654Z,2.90
2019-05-21T20:10:10.388Z,3.20
2019-05-21T20:12:40.129Z,2.75
2019-05-21T20:15:10.327Z,3.10
2019-05-21T20:17:40.580Z,2.25
2019-05-21T20:20:10.533Z,2.77
2019-05-21T20:22:42.497Z,3.07
2019-05-21T20:25:13.126Z,2.55
2019-05-21T20:27:46.528Z,3.00
2019-05-21T20:30:21.490Z,2.17
2019-05-21T20:32:50.170Z,1.70
2019-05-21T20:35:20.349Z,4.33
2019-05-21T20:37:49.945Z,2.45
2019-05-21T20:40:18.929Z,6.55
2019-05-21T20:42:48.686Z,2.75
2019-05-21T20:45:19.248Z,2.55
2019-05-21T20:47:51.045Z,3.10
2019-05-21T20:50:21.552Z,3.58
2019-05-21T20:52:51.852Z,2.42
2019-05-21T20:55:20.390Z,3.22
2019-05-21T20:57:49.237Z,3.70
2019-05-21T21:00:23.159Z,2.25
2019-05-21T21:02:52.864Z,7.78
2019-05-21T21:05:22.345Z,3.42
2019-05-21T21:07:51.624Z,3.98
2019-05-21T21:10:20.754Z,3.37
2019-05-21T21:12:50.655Z,2.70
2019-05-21T21:15:19.332Z,2.83
2019-05-21T21:17:47.820Z,2.90
2019-05-21T21:20:16.360Z,4.37
2019-05-21T21:22:45.068Z,4.12
2019-05-21T21:25:16.534Z,4.30
2019-05-21T21:27:46.492Z,5.33
2019-05-21T21:30:15.133Z,5.47
2019-05-21T21:32:44.352Z,6.00
2019-05-21T21:35:14.767Z,4.35
2019-05-21T21:37:43.734Z,6.28
2019-05-21T21:40:14.231Z,5.12
2019-05-21T21:42:43.890Z,5.37
2019-05-21T21:45:13.832Z,4.80
2019-05-21T21:47:42.630Z,4.87
2019-05-21T21:50:13.001Z,4.67
2019-05-21T21:52:42.256Z,5.35
2019-05-21T21:55:12.363Z,6.17
2019-05-21T21:57:40.884Z,7.85
2019-05-21T22:00:30.473Z,6.20
2019-05-21T22:03:02.144Z,4.67
2019-05-21T22:05:32.117Z,4.08
2019-05-21T22:08:01.109Z,5.40
2019-05-21T22:10:30.247Z,4.67
2019-05-21T22:12:58.920Z,5.85
2019-05-21T22:15:27.550Z,5.37
2019-05-21T22:17:56.383Z,5.35
2019-05-21T22:20:25.594Z,5.22
2019-05-21T22:22:54.081Z,7.95
2019-05-21T22:25:22.767Z,8.30
2019-05-21T22:27:51.366Z,11.85
2019-05-21T22:30:20.552Z,12.53
2019-05-21T22:32:49.050Z,13.03
2019-05-21T22:35:17.575Z,11.88
2019-05-21T22:37:46.036Z,18.92
2019-05-21T22:40:14.873Z,19.77
2019-05-21T22:42:43.640Z,24.77
2019-05-21T22:45:12.639Z,27.22
2019-05-21T22:47:41.295Z,26.20
2019-05-21T22:50:10.117Z,29.50
2019-05-21T22:52:38.574Z,31.07
2019-05-21T22:55:07.486Z,29.35
2019-05-21T22:57:36.019Z,32.55
2019-05-21T23:00:06.838Z,32.33
2019-05-21T23:05:06.298Z,31.77
2019-05-21T23:07:35.037Z,34.23
2019-05-21T23:10:06.483Z,31.95
2019-05-21T23:12:35.257Z,35.52
2019-05-21T23:15:23.197Z,35.48
2019-05-21T23:17:38.529Z,37.08
2019-05-21T23:20:10.504Z,33.70
2019-05-21T23:22:40.360Z,35.78
2019-05-21T23:25:09.666Z,34.25
2019-05-21T23:27:38.929Z,35.35
2019-05-21T23:30:10.173Z,34.83
2019-05-21T23:32:39.535Z,35.83
2019-05-21T23:35:09.806Z,36.53
2019-05-21T23:37:41.167Z,37.80
2019-05-21T23:40:11.607Z,39.58
2019-05-21T23:42:41.915Z,36.93
2019-05-21T23:45:12.892Z,40.20
2019-05-21T23:50:11.256Z,36.90
2019-05-21T23:52:40.125Z,36.45
2019-05-21T23:55:09.223Z,35.00
2019-05-21T23:57:38.694Z,35.70
